createdAt,value
2022-11-27T00:02:29.672Z,12.63
2022-11-27T00:07:34.861Z,12.43
2022-11-27T00:12:42.362Z,11.63
2022-11-27T00:17:47.499Z,11.03
2022-11-27T00:22:52.419Z,11.47
2022-11-27T00:28:00.047Z,11.00
2022-11-27T00:33:04.911Z,11.40
2022-11-27T00:38:09.813Z,12.67
2022-11-27T00:43:17.320Z,12.07
2022-11-27T00:48:22.528Z,12.13
2022-11-27T00:53:28.253Z,9.93
2022-11-27T00:58:37.724Z,10.20
2022-11-27T01:03:42.766Z,9.77
2022-11-27T01:08:47.972Z,9.20
2022-11-27T01:13:56.027Z,9.87
2022-11-27T01:19:02.816Z,9.50
2022-11-27T01:24:09.162Z,10.87
2022-11-27T01:29:16.822Z,10.90
2022-11-27T01:34:22.048Z,10.93
2022-11-27T01:39:27.036Z,11.57
2022-11-27T01:44:54.275Z,10.17
2022-11-27T01:50:05.696Z,12.90
2022-11-27T01:55:18.980Z,10.90
2022-11-27T02:00:27.660Z,10.83
2022-11-27T02:05:33.630Z,10.97
2022-11-27T02:10:49.867Z,10.67
2022-11-27T02:16:05.555Z,10.43
2022-11-27T02:21:16.765Z,10.40
2022-11-27T02:27:03.921Z,11.47
2022-11-27T02:32:18.000Z,12.53
2022-11-27T02:37:30.291Z,10.83
2022-11-27T02:42:38.905Z,11.10
2022-11-27T02:47:49.313Z,12.20
2022-11-27T02:52:58.553Z,11.73
2022-11-27T02:58:06.580Z,10.80
2022-11-27T03:03:22.846Z,11.77
2022-11-27T03:08:36.323Z,11.23
2022-11-27T03:13:45.144Z,11.40
2022-11-27T03:19:01.707Z,9.90
2022-11-27T03:24:07.590Z,11.27
2022-11-27T03:29:15.367Z,9.90
2022-11-27T03:34:23.435Z,10.77
2022-11-27T03:39:29.600Z,10.37
2022-11-27T03:44:42.361Z,11.33
2022-11-27T03:50:05.829Z,10.50
2022-11-27T03:55:15.404Z,11.07
2022-11-27T04:00:20.961Z,10.50
2022-11-27T04:05:28.811Z,9.97
2022-11-27T04:10:34.245Z,9.60
2022-11-27T04:15:39.241Z,10.73
2022-11-27T04:20:47.234Z,10.40
2022-11-27T04:25:52.366Z,10.70
2022-11-27T04:30:57.795Z,10.97
2022-11-27T04:36:05.485Z,10.00
2022-11-27T04:41:10.588Z,9.40
2022-11-27T04:46:15.639Z,9.67
2022-11-27T04:51:25.492Z,10.43
2022-11-27T04:56:30.467Z,10.33
2022-11-27T05:01:35.631Z,10.40
2022-11-27T05:06:43.183Z,9.47
2022-11-27T05:11:48.406Z,9.77
2022-11-27T05:16:54.854Z,9.67
2022-11-27T05:22:02.522Z,10.13
2022-11-27T05:27:07.374Z,8.30
2022-11-27T05:32:12.285Z,9.07
2022-11-27T05:37:21.073Z,9.23
2022-11-27T05:42:26.126Z,8.30
2022-11-27T05:47:31.176Z,8.10
2022-11-27T05:52:38.790Z,7.77
2022-11-27T05:57:43.693Z,6.60
2022-11-27T06:02:48.790Z,6.50
2022-11-27T06:07:56.441Z,6.30
2022-11-27T06:13:01.514Z,6.40
2022-11-27T06:18:06.658Z,7.20
2022-11-27T06:23:14.216Z,8.00
2022-11-27T06:28:20.345Z,7.37
2022-11-27T06:33:25.451Z,9.17
2022-11-27T06:38:35.051Z,9.83
2022-11-27T06:43:44.335Z,10.07
2022-11-27T06:48:51.833Z,12.03
2022-11-27T06:54:00.732Z,10.83
2022-11-27T06:59:05.719Z,10.00
2022-11-27T07:04:13.353Z,10.70
2022-11-27T07:09:22.613Z,11.80
2022-11-27T07:14:27.627Z,15.03
2022-11-27T07:19:32.681Z,15.40
2022-11-27T07:24:44.158Z,11.83
2022-11-27T07:29:53.984Z,12.33
2022-11-27T07:34:59.188Z,10.50
2022-11-27T07:40:09.895Z,11.70
2022-11-27T07:45:15.018Z,11.77
2022-11-27T07:50:23.357Z,12.00
2022-11-27T07:55:31.108Z,15.47
2022-11-27T08:00:36.679Z,12.20
2022-11-27T08:05:42.635Z,13.50
2022-11-27T08:10:51.564Z,13.83
2022-11-27T08:15:58.880Z,13.93
2022-11-27T08:21:06.032Z,15.30
2022-11-27T08:26:15.808Z,13.87
2022-11-27T08:31:22.763Z,13.00
2022-11-27T08:36:29.720Z,12.93
2022-11-27T08:41:38.348Z,12.47
2022-11-27T08:46:43.423Z,13.23
2022-11-27T08:51:48.394Z,11.17
2022-11-27T08:57:03.426Z,12.57
2022-11-27T09:02:11.887Z,13.63
2022-11-27T09:07:18.615Z,11.73
2022-11-27T09:12:30.937Z,12.00
2022-11-27T09:17:37.076Z,11.03
2022-11-27T09:22:42.097Z,10.07
2022-11-27T09:27:52.673Z,9.50
2022-11-27T09:32:57.797Z,8.13
2022-11-27T09:38:02.795Z,7.13
2022-11-27T09:43:14.375Z,7.03
2022-11-27T09:48:26.346Z,7.80
2022-11-27T09:53:37.029Z,6.27
2022-11-27T09:58:56.768Z,8.10
2022-11-27T10:04:06.701Z,7.80
2022-11-27T10:09:24.113Z,8.43
2022-11-27T10:14:46.451Z,6.70
2022-11-27T10:20:02.512Z,7.10
2022-11-27T10:25:21.062Z,6.47
2022-11-27T10:30:31.455Z,5.97
2022-11-27T10:35:39.936Z,6.40
2022-11-27T10:40:52.214Z,5.93
2022-11-27T10:46:08.503Z,6.80
2022-11-27T10:51:18.697Z,6.30
2022-11-27T10:56:45.348Z,5.30
2022-11-27T11:01:57.911Z,5.13
2022-11-27T11:07:04.696Z,4.57
2022-11-27T11:12:10.956Z,4.57
2022-11-27T11:17:21.407Z,4.87
2022-11-27T11:22:27.269Z,5.73
2022-11-27T11:27:33.939Z,5.60
2022-11-27T11:32:42.907Z,4.77
2022-11-27T11:37:51.425Z,4.83
2022-11-27T11:42:59.203Z,5.50
2022-11-27T11:48:27.541Z,5.47
2022-11-27T11:53:39.445Z,5.60
2022-11-27T11:59:00.945Z,5.27
2022-11-27T12:04:27.794Z,4.93
2022-11-27T12:09:50.226Z,5.47
2022-11-27T12:15:02.281Z,5.83
2022-11-27T12:20:21.574Z,5.60
2022-11-27T12:25:34.014Z,6.07
2022-11-27T12:30:48.474Z,5.77
2022-11-27T12:36:08.017Z,6.50
2022-11-27T12:41:35.370Z,5.83
2022-11-27T12:46:51.645Z,5.47
2022-11-27T12:52:05.538Z,6.27
2022-11-27T12:57:18.266Z,6.17
2022-11-27T13:02:31.456Z,7.13
2022-11-27T13:07:49.218Z,6.27
2022-11-27T13:13:08.044Z,6.50
2022-11-27T13:18:21.775Z,7.07
2022-11-27T13:23:36.141Z,7.73
2022-11-27T13:28:47.054Z,7.93
2022-11-27T13:33:53.898Z,7.47
2022-11-27T13:39:05.423Z,6.67
2022-11-27T13:44:25.890Z,6.63
2022-11-27T13:49:34.043Z,6.00
2022-11-27T13:54:43.232Z,6.17
2022-11-27T13:59:59.556Z,6.17
2022-11-27T14:05:05.581Z,6.73
2022-11-27T14:10:18.978Z,6.00
2022-11-27T14:15:27.520Z,5.77
2022-11-27T14:20:38.000Z,6.40
2022-11-27T14:25:45.692Z,6.93
2022-11-27T14:30:53.220Z,6.90
2022-11-27T14:36:02.464Z,7.00
2022-11-27T14:41:18.410Z,7.27
2022-11-27T14:46:26.733Z,7.67
2022-11-27T14:51:35.309Z,7.87
2022-11-27T14:56:46.322Z,8.90
2022-11-27T15:02:03.131Z,8.97
2022-11-27T15:07:15.739Z,8.80
2022-11-27T15:12:26.309Z,8.00
2022-11-27T15:17:33.974Z,8.73
2022-11-27T15:22:39.228Z,8.73
2022-11-27T15:27:51.009Z,8.67
2022-11-27T15:32:57.004Z,8.77
2022-11-27T15:38:05.682Z,9.37
2022-11-27T15:43:17.292Z,10.30
2022-11-27T15:48:27.666Z,11.47
2022-11-27T15:53:32.829Z,13.47
2022-11-27T15:58:41.756Z,11.33
2022-11-27T16:03:47.830Z,11.97
2022-11-27T16:08:57.214Z,9.83
2022-11-27T16:14:07.644Z,9.97
2022-11-27T16:19:14.930Z,9.27
2022-11-27T16:24:23.708Z,11.00
2022-11-27T16:29:32.001Z,12.77
2022-11-27T16:34:37.047Z,12.43
2022-11-27T16:39:42.516Z,9.30
2022-11-27T16:44:50.270Z,11.63
2022-11-27T16:49:55.659Z,14.53
2022-11-27T16:55:00.764Z,10.30
2022-11-27T17:00:10.527Z,8.93
2022-11-27T17:05:15.560Z,9.20
2022-11-27T17:10:29.711Z,8.03
2022-11-27T17:15:40.741Z,8.00
2022-11-27T17:20:46.872Z,7.40
2022-11-27T17:25:55.276Z,7.90
2022-11-27T17:31:03.576Z,7.40
2022-11-27T17:36:09.713Z,7.40
2022-11-27T17:41:16.353Z,7.73
2022-11-27T17:46:27.523Z,7.93
2022-11-27T17:51:35.565Z,7.90
2022-11-27T17:56:40.504Z,8.10
2022-11-27T18:01:53.415Z,8.90
2022-11-27T18:07:00.499Z,11.03
2022-11-27T18:12:09.219Z,10.43
2022-11-27T18:17:18.252Z,8.70
2022-11-27T18:22:24.377Z,11.50
2022-11-27T18:27:29.442Z,10.40
2022-11-27T18:32:38.899Z,12.73
2022-11-27T18:37:43.937Z,13.87
2022-11-27T18:42:49.011Z,16.33
2022-11-27T18:47:57.257Z,16.07
2022-11-27T18:53:04.880Z,16.13
2022-11-27T18:58:12.903Z,17.73
2022-11-27T19:03:21.223Z,18.57
2022-11-27T19:08:26.916Z,20.40
2022-11-27T19:13:33.802Z,19.97
2022-11-27T19:18:43.496Z,22.17
2022-11-27T19:23:49.424Z,21.90
2022-11-27T19:28:55.761Z,21.77
2022-11-27T19:34:06.390Z,21.97
2022-11-27T19:39:17.222Z,21.00
2022-11-27T19:44:22.835Z,19.90
2022-11-27T19:49:32.787Z,19.67
2022-11-27T19:54:39.240Z,19.17
2022-11-27T19:59:45.512Z,20.67
2022-11-27T20:04:55.833Z,20.40
2022-11-27T20:10:01.942Z,21.27
2022-11-27T20:15:09.181Z,22.07
2022-11-27T20:20:18.824Z,20.43
2022-11-27T20:25:27.601Z,21.83
2022-11-27T20:30:34.556Z,21.30
2022-11-27T20:35:47.002Z,21.73
2022-11-27T20:40:52.754Z,22.27
2022-11-27T20:46:01.311Z,20.77
2022-11-27T20:51:13.923Z,22.43
2022-11-27T20:56:21.409Z,23.90
2022-11-27T21:01:31.102Z,23.63
2022-11-27T21:06:43.665Z,23.63
2022-11-27T21:11:54.575Z,22.97
2022-11-27T21:17:04.592Z,23.43
2022-11-27T21:22:13.540Z,24.13
2022-11-27T21:27:18.759Z,22.77
2022-11-27T21:32:23.968Z,25.23
2022-11-27T21:37:32.114Z,23.87
2022-11-27T21:42:41.561Z,23.97
2022-11-27T21:47:49.227Z,22.07
2022-11-27T21:52:57.869Z,24.00
2022-11-27T21:58:02.822Z,23.80
2022-11-27T22:03:09.960Z,22.80
2022-11-27T22:08:17.558Z,23.03
2022-11-27T22:13:22.832Z,24.83
2022-11-27T22:18:28.376Z,23.23
2022-11-27T22:23:36.962Z,23.47
2022-11-27T22:28:42.432Z,20.70
2022-11-27T22:33:48.912Z,21.03
2022-11-27T22:39:01.318Z,22.17
2022-11-27T22:44:08.581Z,21.87
2022-11-27T22:49:15.285Z,21.03
2022-11-27T22:54:24.597Z,20.20
2022-11-27T22:59:32.834Z,19.90
2022-11-27T23:04:41.057Z,18.47
2022-11-27T23:09:48.801Z,18.23
2022-11-27T23:14:53.787Z,19.27
2022-11-27T23:19:58.755Z,18.60
2022-11-27T23:25:06.422Z,16.87
2022-11-27T23:30:12.806Z,15.73
2022-11-27T23:35:17.786Z,16.97
2022-11-27T23:40:25.317Z,16.13
2022-11-27T23:45:30.363Z,14.43
2022-11-27T23:50:35.534Z,16.13
2022-11-27T23:55:43.337Z,15.47
